sensor_id;sensor_type;location;lat;lon;timestamp;pressure;altitude;pressure_sealevel;temperature;humidity
68889;BME280;55930;47.412;8.790;2022-07-17T00:02:19;95283.13;;;18.03;48.65
68889;BME280;55930;47.412;8.790;2022-07-17T00:04:44;95289.22;;;18.14;47.99
68889;BME280;55930;47.412;8.790;2022-07-17T00:07:14;95292.88;;;18.06;48.30
68889;BME280;55930;47.412;8.790;2022-07-17T00:09:41;95292.13;;;18.05;48.61
68889;BME280;55930;47.412;8.790;2022-07-17T00:12:09;95295.56;;;18.06;48.26
68889;BME280;55930;47.412;8.790;2022-07-17T00:14:37;95296.78;;;17.93;48.60
68889;BME280;55930;47.412;8.790;2022-07-17T00:17:03;95297.28;;;17.92;49.31
68889;BME280;55930;47.412;8.790;2022-07-17T00:19:31;95297.75;;;17.85;48.87
68889;BME280;55930;47.412;8.790;2022-07-17T00:21:56;95294.09;;;17.88;48.85
68889;BME280;55930;47.412;8.790;2022-07-17T00:24:22;95288.97;;;17.79;49.41
68889;BME280;55930;47.412;8.790;2022-07-17T00:26:48;95291.16;;;17.80;49.38
68889;BME280;55930;47.412;8.790;2022-07-17T00:29:13;95307.03;;;17.84;48.89
68889;BME280;55930;47.412;8.790;2022-07-17T00:31:39;95298.72;;;17.76;48.93
68889;BME280;55930;47.412;8.790;2022-07-17T00:34:04;95304.84;;;17.71;48.84
68889;BME280;55930;47.412;8.790;2022-07-17T00:36:32;95297.75;;;17.74;49.14
68889;BME280;55930;47.412;8.790;2022-07-17T00:38:57;95296.28;;;17.73;49.01
68889;BME280;55930;47.412;8.790;2022-07-17T00:41:23;95295.06;;;17.68;49.38
68889;BME280;55930;47.412;8.790;2022-07-17T00:43:48;95291.84;;;17.58;49.88
68889;BME280;55930;47.412;8.790;2022-07-17T00:46:14;95291.16;;;17.69;49.10
68889;BME280;55930;47.412;8.790;2022-07-17T00:48:39;95295.28;;;17.65;49.42
68889;BME280;55930;47.412;8.790;2022-07-17T00:51:05;95295.28;;;17.65;49.85
68889;BME280;55930;47.412;8.790;2022-07-17T00:53:32;95293.06;;;17.57;49.67
68889;BME280;55930;47.412;8.790;2022-07-17T00:56:00;95290.38;;;17.57;49.77
68889;BME280;55930;47.412;8.790;2022-07-17T00:58:28;95294.06;;;17.54;49.26
68889;BME280;55930;47.412;8.790;2022-07-17T01:00:55;95292.34;;;17.46;50.40
68889;BME280;55930;47.412;8.790;2022-07-17T01:03:25;95295.75;;;17.52;50.36
68889;BME280;55930;47.412;8.790;2022-07-17T01:05:56;95292.34;;;17.46;50.25
68889;BME280;55930;47.412;8.790;2022-07-17T01:08:21;95285.50;;;17.45;50.37
68889;BME280;55930;47.412;8.790;2022-07-17T01:10:46;95284.75;;;17.39;50.24
68889;BME280;55930;47.412;8.790;2022-07-17T01:13:12;95290.13;;;17.39;50.42
68889;BME280;55930;47.412;8.790;2022-07-17T01:15:39;95281.09;;;17.36;50.51
68889;BME280;55930;47.412;8.790;2022-07-17T01:18:12;95288.19;;;17.39;50.41
68889;BME280;55930;47.412;8.790;2022-07-17T01:20:41;95282.78;;;17.34;50.91
68889;BME280;55930;47.412;8.790;2022-07-17T01:23:07;95296.69;;;17.32;50.27
68889;BME280;55930;47.412;8.790;2022-07-17T01:25:35;95292.03;;;17.33;50.82
68889;BME280;55930;47.412;8.790;2022-07-17T01:28:02;95290.84;;;17.34;51.21
68889;BME280;55930;47.412;8.790;2022-07-17T01:30:28;95290.56;;;17.20;50.84
68889;BME280;55930;47.412;8.790;2022-07-17T01:32:53;95287.88;;;17.15;51.19
68889;BME280;55930;47.412;8.790;2022-07-17T01:35:19;95284.66;;;17.05;51.74
68889;BME280;55930;47.412;8.790;2022-07-17T01:37:46;95292.91;;;16.96;52.18
68889;BME280;55930;47.412;8.790;2022-07-17T01:40:13;95291.72;;;16.97;52.86
68889;BME280;55930;47.412;8.790;2022-07-17T01:42:43;95285.59;;;16.91;53.44
68889;BME280;55930;47.412;8.790;2022-07-17T01:45:09;95292.88;;;16.85;54.15
68889;BME280;55930;47.412;8.790;2022-07-17T01:47:35;95289.97;;;16.83;53.74
68889;BME280;55930;47.412;8.790;2022-07-17T01:50:00;95277.50;;;16.80;54.59
68889;BME280;55930;47.412;8.790;2022-07-17T01:52:26;95291.03;;;16.60;54.76
68889;BME280;55930;47.412;8.790;2022-07-17T01:54:52;95284.25;;;16.64;54.90
68889;BME280;55930;47.412;8.790;2022-07-17T01:57:19;95284.41;;;16.50;56.02
68889;BME280;55930;47.412;8.790;2022-07-17T01:59:48;95282.97;;;16.54;54.92
68889;BME280;55930;47.412;8.790;2022-07-17T02:02:14;95287.63;;;16.59;54.69
68889;BME280;55930;47.412;8.790;2022-07-17T02:04:41;95286.56;;;16.45;55.81
68889;BME280;55930;47.412;8.790;2022-07-17T02:07:07;95283.41;;;16.47;55.97
68889;BME280;55930;47.412;8.790;2022-07-17T02:09:33;95287.44;;;16.26;57.45
68889;BME280;55930;47.412;8.790;2022-07-17T02:11:58;95279.09;;;16.18;57.37
68889;BME280;55930;47.412;8.790;2022-07-17T02:14:24;95279.78;;;16.13;57.76
68889;BME280;55930;47.412;8.790;2022-07-17T02:16:49;95274.88;;;16.06;58.81
68889;BME280;55930;47.412;8.790;2022-07-17T02:19:14;95278.97;;;15.96;58.30
68889;BME280;55930;47.412;8.790;2022-07-17T02:21:40;95279.13;;;15.87;59.90
68889;BME280;55930;47.412;8.790;2022-07-17T02:24:05;95267.72;;;15.92;58.30
68889;BME280;55930;47.412;8.790;2022-07-17T02:26:31;95269.47;;;15.95;57.87
68889;BME280;55930;47.412;8.790;2022-07-17T02:28:56;95273.78;;;15.87;58.66
68889;BME280;55930;47.412;8.790;2022-07-17T02:31:22;95272.56;;;15.88;58.16
68889;BME280;55930;47.412;8.790;2022-07-17T02:33:47;95265.59;;;15.96;58.58
68889;BME280;55930;47.412;8.790;2022-07-17T02:36:13;95265.81;;;15.98;58.29
68889;BME280;55930;47.412;8.790;2022-07-17T02:38:40;95269.22;;;15.98;58.48
68889;BME280;55930;47.412;8.790;2022-07-17T02:41:08;95270.31;;;15.81;58.74
68889;BME280;55930;47.412;8.790;2022-07-17T02:43:34;95268.06;;;16.05;57.29
68889;BME280;55930;47.412;8.790;2022-07-17T02:46:00;95269.31;;;16.10;57.31
68889;BME280;55930;47.412;8.790;2022-07-17T02:48:26;95263.00;;;16.13;57.63
68889;BME280;55930;47.412;8.790;2022-07-17T02:50:51;95260.28;;;16.07;57.58
68889;BME280;55930;47.412;8.790;2022-07-17T02:53:17;95264.97;;;16.12;57.48
68889;BME280;55930;47.412;8.790;2022-07-17T02:55:44;95264.47;;;16.14;57.60
68889;BME280;55930;47.412;8.790;2022-07-17T02:58:10;95265.38;;;16.05;57.35
68889;BME280;55930;47.412;8.790;2022-07-17T03:00:35;95263.00;;;16.13;57.53
68889;BME280;55930;47.412;8.790;2022-07-17T03:03:01;95266.47;;;16.19;57.30
68889;BME280;55930;47.412;8.790;2022-07-17T03:05:26;95266.94;;;16.17;57.04
68889;BME280;55930;47.412;8.790;2022-07-17T03:07:54;95264.00;;;16.21;57.22
68889;BME280;55930;47.412;8.790;2022-07-17T03:10:20;95267.09;;;16.08;57.06
68889;BME280;55930;47.412;8.790;2022-07-17T03:12:45;95262.69;;;16.05;57.69
68889;BME280;55930;47.412;8.790;2022-07-17T03:15:13;95263.00;;;16.13;57.61
68889;BME280;55930;47.412;8.790;2022-07-17T03:17:39;95262.50;;;16.08;57.59
68889;BME280;55930;47.412;8.790;2022-07-17T03:20:05;95254.44;;;16.03;57.69
68889;BME280;55930;47.412;8.790;2022-07-17T03:22:31;95251.25;;;16.04;58.11
68889;BME280;55930;47.412;8.790;2022-07-17T03:25:01;95251.19;;;15.93;58.44
68889;BME280;55930;47.412;8.790;2022-07-17T03:27:27;95258.78;;;16.00;58.74
68889;BME280;55930;47.412;8.790;2022-07-17T03:29:53;95263.06;;;15.87;59.12
68889;BME280;55930;47.412;8.790;2022-07-17T03:32:21;95251.47;;;15.95;59.10
68889;BME280;55930;47.412;8.790;2022-07-17T03:34:47;95258.50;;;15.93;58.17
68889;BME280;55930;47.412;8.790;2022-07-17T03:37:12;95257.03;;;15.92;59.36
68889;BME280;55930;47.412;8.790;2022-07-17T03:39:38;95255.28;;;15.89;59.01
68889;BME280;55930;47.412;8.790;2022-07-17T03:42:03;95261.94;;;15.99;58.57
68889;BME280;55930;47.412;8.790;2022-07-17T03:44:29;95252.91;;;15.96;58.56
68889;BME280;55930;47.412;8.790;2022-07-17T03:46:57;95249.47;;;15.90;58.81
68889;BME280;55930;47.412;8.790;2022-07-17T03:49:22;95252.38;;;15.87;58.97
68889;BME280;55930;47.412;8.790;2022-07-17T03:51:48;95257.84;;;16.03;58.65
68889;BME280;55930;47.412;8.790;2022-07-17T03:54:13;95255.66;;;16.07;57.97
68889;BME280;55930;47.412;8.790;2022-07-17T03:56:41;95258.31;;;16.02;58.73
68889;BME280;55930;47.412;8.790;2022-07-17T03:59:07;95250.28;;;16.02;58.29
68889;BME280;55930;47.412;8.790;2022-07-17T04:01:32;95250.03;;;16.00;57.90
68889;BME280;55930;47.412;8.790;2022-07-17T04:03:57;95251.50;;;16.01;57.91
68889;BME280;55930;47.412;8.790;2022-07-17T04:06:23;95252.25;;;16.07;57.74
68889;BME280;55930;47.412;8.790;2022-07-17T04:08:48;95255.19;;;16.09;58.03
68889;BME280;55930;47.412;8.790;2022-07-17T04:11:14;95260.06;;;16.11;57.77
68889;BME280;55930;47.412;8.790;2022-07-17T04:13:39;95257.88;;;16.09;58.08
68889;BME280;55930;47.412;8.790;2022-07-17T04:16:05;95255.16;;;16.03;58.21
68889;BME280;55930;47.412;8.790;2022-07-17T04:18:35;95263.50;;;16.11;57.99
68889;BME280;55930;47.412;8.790;2022-07-17T04:21:07;95261.94;;;15.99;58.38
68889;BME280;55930;47.412;8.790;2022-07-17T04:23:34;95265.94;;;16.15;58.23
68889;BME280;55930;47.412;8.790;2022-07-17T04:26:00;95261.31;;;16.15;58.40
68889;BME280;55930;47.412;8.790;2022-07-17T04:28:28;95266.66;;;16.15;58.30
68889;BME280;55930;47.412;8.790;2022-07-17T04:30:54;95262.75;;;16.11;58.38
68889;BME280;55930;47.412;8.790;2022-07-17T04:33:19;95260.13;;;16.22;57.50
68889;BME280;55930;47.412;8.790;2022-07-17T04:35:44;95256.97;;;16.18;58.19
68889;BME280;55930;47.412;8.790;2022-07-17T04:38:10;95264.56;;;16.30;57.20
68889;BME280;55930;47.412;8.790;2022-07-17T04:40:37;95266.00;;;16.26;57.92
68889;BME280;55930;47.412;8.790;2022-07-17T04:43:05;95263.63;;;16.33;57.86
68889;BME280;55930;47.412;8.790;2022-07-17T04:45:31;95269.19;;;16.30;57.14
68889;BME280;55930;47.412;8.790;2022-07-17T04:47:56;95264.91;;;16.43;56.83
68889;BME280;55930;47.412;8.790;2022-07-17T04:50:23;95271.28;;;16.52;55.77
68889;BME280;55930;47.412;8.790;2022-07-17T04:52:51;95268.09;;;16.53;55.90
68889;BME280;55930;47.412;8.790;2022-07-17T04:55:17;95264.25;;;16.60;55.80
68889;BME280;55930;47.412;8.790;2022-07-17T04:57:43;95268.69;;;16.68;56.01
68889;BME280;55930;47.412;8.790;2022-07-17T05:00:10;95262.63;;;16.73;55.24
68889;BME280;55930;47.412;8.790;2022-07-17T05:02:35;95263.56;;;16.70;55.35
68889;BME280;55930;47.412;8.790;2022-07-17T05:05:02;95263.38;;;16.85;55.52
68889;BME280;55930;47.412;8.790;2022-07-17T05:07:28;95254.66;;;16.90;55.25
68889;BME280;55930;47.412;8.790;2022-07-17T05:09:53;95260.00;;;16.90;54.79
68889;BME280;55930;47.412;8.790;2022-07-17T05:12:18;95264.44;;;16.99;55.22
68889;BME280;55930;47.412;8.790;2022-07-17T05:14:44;95263.22;;;17.05;55.02
68889;BME280;55930;47.412;8.790;2022-07-17T05:17:09;95269.56;;;17.08;54.55
68889;BME280;55930;47.412;8.790;2022-07-17T05:19:37;95265.69;;;17.26;54.62
68889;BME280;55930;47.412;8.790;2022-07-17T05:22:03;95259.38;;;17.29;54.12
68889;BME280;55930;47.412;8.790;2022-07-17T05:24:28;95261.09;;;17.37;53.33
68889;BME280;55930;47.412;8.790;2022-07-17T05:26:57;95254.03;;;17.40;53.28
68889;BME280;55930;47.412;8.790;2022-07-17T05:29:25;95257.97;;;17.55;53.07
68889;BME280;55930;47.412;8.790;2022-07-17T05:31:50;95255.28;;;17.55;53.55
68889;BME280;55930;47.412;8.790;2022-07-17T05:34:16;95256.25;;;17.58;53.09
68889;BME280;55930;47.412;8.790;2022-07-17T05:36:41;95257.75;;;17.70;53.11
68889;BME280;55930;47.412;8.790;2022-07-17T05:39:07;95261.38;;;17.89;52.48
68889;BME280;55930;47.412;8.790;2022-07-17T05:41:33;95273.59;;;17.90;52.14
68889;BME280;55930;47.412;8.790;2022-07-17T05:43:59;95262.63;;;18.00;52.35
68889;BME280;55930;47.412;8.790;2022-07-17T05:46:25;95261.41;;;18.01;52.43
68889;BME280;55930;47.412;8.790;2022-07-17T05:48:50;95262.84;;;18.07;52.54
68889;BME280;55930;47.412;8.790;2022-07-17T05:51:18;95260.41;;;18.09;52.03
68889;BME280;55930;47.412;8.790;2022-07-17T05:53:43;95263.09;;;18.09;53.01
68889;BME280;55930;47.412;8.790;2022-07-17T05:56:11;95268.44;;;18.31;51.44
68889;BME280;55930;47.412;8.790;2022-07-17T05:58:37;95276.19;;;18.52;51.02
68889;BME280;55930;47.412;8.790;2022-07-17T06:01:02;95272.31;;;18.58;51.16
68889;BME280;55930;47.412;8.790;2022-07-17T06:03:27;95277.88;;;18.71;50.97
68889;BME280;55930;47.412;8.790;2022-07-17T06:05:54;95281.41;;;19.02;49.80
68889;BME280;55930;47.412;8.790;2022-07-17T06:08:20;95277.22;;;19.12;49.59
68889;BME280;55930;47.412;8.790;2022-07-17T06:10:45;95284.09;;;19.02;50.62
68889;BME280;55930;47.412;8.790;2022-07-17T06:13:11;95285.25;;;19.23;49.39
68889;BME280;55930;47.412;8.790;2022-07-17T06:15:36;95276.13;;;19.37;49.64
68889;BME280;55930;47.412;8.790;2022-07-17T06:18:02;95279.28;;;19.36;50.00
68889;BME280;55930;47.412;8.790;2022-07-17T06:20:28;95280.72;;;19.48;49.24
68889;BME280;55930;47.412;8.790;2022-07-17T06:22:53;95276.66;;;19.71;48.94
68889;BME280;55930;47.412;8.790;2022-07-17T06:25:19;95282.72;;;20.07;48.02
68889;BME280;55930;47.412;8.790;2022-07-17T06:27:44;95281.94;;;20.12;47.68
68889;BME280;55930;47.412;8.790;2022-07-17T06:30:12;95282.47;;;20.11;47.33
68889;BME280;55930;47.412;8.790;2022-07-17T06:32:40;95287.28;;;20.48;47.59
68889;BME280;55930;47.412;8.790;2022-07-17T06:35:07;95287.88;;;20.59;47.19
68889;BME280;55930;47.412;8.790;2022-07-17T06:37:33;95285.59;;;20.15;47.74
68889;BME280;55930;47.412;8.790;2022-07-17T06:39:59;95283.59;;;20.51;47.10
68889;BME280;55930;47.412;8.790;2022-07-17T06:42:25;95290.81;;;20.61;46.60
68889;BME280;55930;47.412;8.790;2022-07-17T06:44:50;95291.09;;;21.01;46.45
68889;BME280;55930;47.412;8.790;2022-07-17T06:47:15;95290.69;;;21.34;44.91
68889;BME280;55930;47.412;8.790;2022-07-17T06:49:43;95286.16;;;21.05;45.69
68889;BME280;55930;47.412;8.790;2022-07-17T06:52:09;95294.59;;;21.39;45.54
68889;BME280;55930;47.412;8.790;2022-07-17T06:54:35;95288.44;;;21.20;45.37
68889;BME280;55930;47.412;8.790;2022-07-17T06:57:00;95295.59;;;21.36;46.05
68889;BME280;55930;47.412;8.790;2022-07-17T06:59:26;95306.41;;;21.87;46.15
68889;BME280;55930;47.412;8.790;2022-07-17T07:01:54;95304.13;;;22.09;45.99
68889;BME280;55930;47.412;8.790;2022-07-17T07:04:19;95307.75;;;22.12;46.04
68889;BME280;55930;47.412;8.790;2022-07-17T07:06:45;95302.97;;;21.86;43.28
68889;BME280;55930;47.412;8.790;2022-07-17T07:09:10;95309.47;;;22.41;45.66
68889;BME280;55930;47.412;8.790;2022-07-17T07:11:39;95313.53;;;21.52;45.89
68889;BME280;55930;47.412;8.790;2022-07-17T07:14:06;95311.94;;;22.26;44.00
68889;BME280;55930;47.412;8.790;2022-07-17T07:16:32;95310.09;;;22.34;44.77
68889;BME280;55930;47.412;8.790;2022-07-17T07:18:57;95312.22;;;22.81;43.25
68889;BME280;55930;47.412;8.790;2022-07-17T07:21:23;95314.06;;;22.46;43.02
68889;BME280;55930;47.412;8.790;2022-07-17T07:23:49;95318.88;;;22.67;43.14
68889;BME280;55930;47.412;8.790;2022-07-17T07:26:15;95315.63;;;22.68;42.88
68889;BME280;55930;47.412;8.790;2022-07-17T07:28:41;95314.94;;;22.94;42.51
68889;BME280;55930;47.412;8.790;2022-07-17T07:31:08;95324.81;;;22.92;42.70
68889;BME280;55930;47.412;8.790;2022-07-17T07:33:37;95317.84;;;23.70;42.16
68889;BME280;55930;47.412;8.790;2022-07-17T07:36:04;95315.03;;;23.62;43.24
68889;BME280;55930;47.412;8.790;2022-07-17T07:38:29;95310.31;;;23.28;41.38
68889;BME280;55930;47.412;8.790;2022-07-17T07:40:55;95307.34;;;23.40;41.70
68889;BME280;55930;47.412;8.790;2022-07-17T07:43:20;95309.19;;;23.92;40.81
68889;BME280;55930;47.412;8.790;2022-07-17T07:45:46;95310.13;;;23.94;42.01
68889;BME280;55930;47.412;8.790;2022-07-17T07:48:11;95316.25;;;24.57;40.28
68889;BME280;55930;47.412;8.790;2022-07-17T07:50:37;95317.56;;;24.64;40.61
68889;BME280;55930;47.412;8.790;2022-07-17T07:53:02;95312.56;;;24.47;40.62
68889;BME280;55930;47.412;8.790;2022-07-17T07:55:30;95321.41;;;24.48;40.93
68889;BME280;55930;47.412;8.790;2022-07-17T07:58:06;95318.00;;;25.04;41.01
68889;BME280;55930;47.412;8.790;2022-07-17T08:00:32;95318.41;;;24.59;39.54
68889;BME280;55930;47.412;8.790;2022-07-17T08:02:58;95317.13;;;23.56;42.32
68889;BME280;55930;47.412;8.790;2022-07-17T08:05:24;95320.75;;;22.98;44.54
68889;BME280;55930;47.412;8.790;2022-07-17T08:07:49;95333.81;;;23.34;44.01
68889;BME280;55930;47.412;8.790;2022-07-17T08:10:15;95327.31;;;22.76;44.99
68889;BME280;55930;47.412;8.790;2022-07-17T08:12:40;95321.50;;;23.59;46.70
68889;BME280;55930;47.412;8.790;2022-07-17T08:15:06;95323.56;;;23.87;46.57
68889;BME280;55930;47.412;8.790;2022-07-17T08:17:31;95320.19;;;23.73;44.00
68889;BME280;55930;47.412;8.790;2022-07-17T08:19:57;95326.91;;;23.93;44.49
68889;BME280;55930;47.412;8.790;2022-07-17T08:22:22;95330.06;;;23.84;43.96
68889;BME280;55930;47.412;8.790;2022-07-17T08:24:47;95329.16;;;23.21;43.47
68889;BME280;55930;47.412;8.790;2022-07-17T08:27:15;95330.06;;;23.84;42.48
68889;BME280;55930;47.412;8.790;2022-07-17T08:29:45;95328.75;;;23.98;44.55
68889;BME280;55930;47.412;8.790;2022-07-17T08:32:10;95332.91;;;23.99;42.33
68889;BME280;55930;47.412;8.790;2022-07-17T08:34:36;95331.91;;;23.68;43.64
68889;BME280;55930;47.412;8.790;2022-07-17T08:37:02;95334.59;;;24.02;45.99
68889;BME280;55930;47.412;8.790;2022-07-17T08:39:29;95321.56;;;24.00;44.06
68889;BME280;55930;47.412;8.790;2022-07-17T08:41:55;95323.63;;;24.28;42.61
68889;BME280;55930;47.412;8.790;2022-07-17T08:44:22;95324.66;;;24.04;43.43
68889;BME280;55930;47.412;8.790;2022-07-17T08:46:50;95319.66;;;24.29;42.94
68889;BME280;55930;47.412;8.790;2022-07-17T08:49:20;95320.31;;;24.01;41.63
68889;BME280;55930;47.412;8.790;2022-07-17T08:51:47;95314.75;;;24.28;44.15
68889;BME280;55930;47.412;8.790;2022-07-17T08:54:13;95313.22;;;24.40;41.73
68889;BME280;55930;47.412;8.790;2022-07-17T08:56:42;95327.38;;;24.46;42.32
68889;BME280;55930;47.412;8.790;2022-07-17T08:59:08;95336.69;;;24.17;41.58
68889;BME280;55930;47.412;8.790;2022-07-17T09:01:33;95343.53;;;24.31;43.15
68889;BME280;55930;47.412;8.790;2022-07-17T09:04:04;95340.19;;;24.95;41.81
68889;BME280;55930;47.412;8.790;2022-07-17T09:06:37;95339.41;;;24.87;40.87
68889;BME280;55930;47.412;8.790;2022-07-17T09:09:08;95333.41;;;25.09;40.04
68889;BME280;55930;47.412;8.790;2022-07-17T09:12:00;95338.44;;;24.27;41.41
68889;BME280;55930;47.412;8.790;2022-07-17T09:14:45;95334.38;;;24.62;40.89
68889;BME280;55930;47.412;8.790;2022-07-17T09:17:13;95339.72;;;25.04;40.73
68889;BME280;55930;47.412;8.790;2022-07-17T09:19:42;95334.38;;;25.27;40.18
68889;BME280;55930;47.412;8.790;2022-07-17T09:24:50;95331.47;;;25.68;39.69
68889;BME280;55930;47.412;8.790;2022-07-17T09:27:28;95336.25;;;25.39;38.86
68889;BME280;55930;47.412;8.790;2022-07-17T09:32:24;95328.09;;;25.39;39.35
68889;BME280;55930;47.412;8.790;2022-07-17T09:34:51;95328.13;;;26.28;40.08
68889;BME280;55930;47.412;8.790;2022-07-17T09:37:22;95334.69;;;26.25;37.10
68889;BME280;55930;47.412;8.790;2022-07-17T09:39:53;95326.81;;;25.40;38.56
68889;BME280;55930;47.412;8.790;2022-07-17T09:42:29;95334.31;;;26.52;38.14
68889;BME280;55930;47.412;8.790;2022-07-17T09:45:04;95333.56;;;26.59;37.54
68889;BME280;55930;47.412;8.790;2022-07-17T09:47:33;95334.69;;;26.48;37.21
68889;BME280;55930;47.412;8.790;2022-07-17T09:50:03;95341.47;;;25.81;38.47
68889;BME280;55930;47.412;8.790;2022-07-17T09:52:32;95338.84;;;26.64;38.38
68889;BME280;55930;47.412;8.790;2022-07-17T09:55:01;95340.81;;;26.87;37.25
68889;BME280;55930;47.412;8.790;2022-07-17T09:57:29;95343.91;;;26.68;35.32
68889;BME280;55930;47.412;8.790;2022-07-17T10:00:01;95343.53;;;26.87;36.55
68889;BME280;55930;47.412;8.790;2022-07-17T10:02:28;95345.16;;;26.67;35.53
68889;BME280;55930;47.412;8.790;2022-07-17T10:04:57;95351.75;;;26.34;37.70
68889;BME280;55930;47.412;8.790;2022-07-17T10:07:23;95347.00;;;26.64;37.14
68889;BME280;55930;47.412;8.790;2022-07-17T10:09:49;95342.84;;;26.41;35.44
68889;BME280;55930;47.412;8.790;2022-07-17T10:12:15;95345.88;;;27.06;35.69
68889;BME280;55930;47.412;8.790;2022-07-17T10:14:45;95344.16;;;27.33;36.09
68889;BME280;55930;47.412;8.790;2022-07-17T10:17:13;95350.25;;;27.49;35.25
68889;BME280;55930;47.412;8.790;2022-07-17T10:22:16;95340.69;;;27.80;33.72
68889;BME280;55930;47.412;8.790;2022-07-17T10:25:03;95339.25;;;27.31;33.43
68889;BME280;55930;47.412;8.790;2022-07-17T10:27:30;95341.22;;;27.78;34.81
68889;BME280;55930;47.412;8.790;2022-07-17T10:30:03;95339.53;;;27.91;33.52
68889;BME280;55930;47.412;8.790;2022-07-17T10:32:33;95350.63;;;27.60;32.11
68889;BME280;55930;47.412;8.790;2022-07-17T10:35:09;95346.59;;;27.14;33.86
68889;BME280;55930;47.412;8.790;2022-07-17T10:40:17;95345.69;;;28.73;32.38
68889;BME280;55930;47.412;8.790;2022-07-17T10:47:51;95352.72;;;28.09;32.82
68889;BME280;55930;47.412;8.790;2022-07-17T10:50:20;95355.78;;;28.38;32.53
68889;BME280;55930;47.412;8.790;2022-07-17T10:52:59;95352.16;;;28.36;33.51
68889;BME280;55930;47.412;8.790;2022-07-17T10:55:25;95351.72;;;28.22;30.67
68889;BME280;55930;47.412;8.790;2022-07-17T10:57:50;95359.28;;;28.56;33.87
68889;BME280;55930;47.412;8.790;2022-07-17T11:00:17;95356.56;;;27.19;33.42
68889;BME280;55930;47.412;8.790;2022-07-17T11:02:45;95351.81;;;28.07;31.61
68889;BME280;55930;47.412;8.790;2022-07-17T11:05:14;95351.69;;;27.97;32.93
68889;BME280;55930;47.412;8.790;2022-07-17T11:08:09;95350.41;;;27.98;31.66
68889;BME280;55930;47.412;8.790;2022-07-17T11:10:38;95351.31;;;28.01;32.34
68889;BME280;55930;47.412;8.790;2022-07-17T11:13:11;95353.59;;;27.79;30.89
68889;BME280;55930;47.412;8.790;2022-07-17T11:15:47;95353.22;;;27.83;30.65
68889;BME280;55930;47.412;8.790;2022-07-17T11:20:54;95341.72;;;27.60;33.03
68889;BME280;55930;47.412;8.790;2022-07-17T11:23:22;95359.44;;;28.08;32.14
68889;BME280;55930;47.412;8.790;2022-07-17T11:28:39;95355.28;;;28.57;32.14
68889;BME280;55930;47.412;8.790;2022-07-17T11:31:18;95345.09;;;28.33;32.15
68889;BME280;55930;47.412;8.790;2022-07-17T11:34:01;95342.25;;;27.91;30.48
68889;BME280;55930;47.412;8.790;2022-07-17T11:36:30;95335.53;;;27.59;33.17
68889;BME280;55930;47.412;8.790;2022-07-17T11:39:11;95339.59;;;28.40;32.94
68889;BME280;55930;47.412;8.790;2022-07-17T11:41:49;95339.81;;;28.77;32.15
68889;BME280;55930;47.412;8.790;2022-07-17T11:44:19;95337.59;;;29.00;30.08
68889;BME280;55930;47.412;8.790;2022-07-17T11:46:47;95339.38;;;28.63;32.00
68889;BME280;55930;47.412;8.790;2022-07-17T11:49:27;95347.06;;;28.40;29.75
68889;BME280;55930;47.412;8.790;2022-07-17T11:51:56;95334.06;;;28.48;30.56
68889;BME280;55930;47.412;8.790;2022-07-17T11:54:22;95330.28;;;27.86;30.72
68889;BME280;55930;47.412;8.790;2022-07-17T11:56:56;95341.03;;;28.16;29.00
68889;BME280;55930;47.412;8.790;2022-07-17T11:59:30;95337.75;;;28.10;29.80
68889;BME280;55930;47.412;8.790;2022-07-17T12:02:05;95337.28;;;27.72;30.66
68889;BME280;55930;47.412;8.790;2022-07-17T12:04:31;95332.47;;;28.87;31.55
68889;BME280;55930;47.412;8.790;2022-07-17T12:07:01;95334.31;;;29.36;30.94
68889;BME280;55930;47.412;8.790;2022-07-17T12:09:32;95336.47;;;29.38;31.56
68889;BME280;55930;47.412;8.790;2022-07-17T12:12:01;95330.19;;;28.93;31.24
68889;BME280;55930;47.412;8.790;2022-07-17T12:14:27;95336.34;;;29.62;30.13
68889;BME280;55930;47.412;8.790;2022-07-17T12:16:57;95335.06;;;29.63;30.93
68889;BME280;55930;47.412;8.790;2022-07-17T12:19:24;95331.28;;;29.86;29.15
68889;BME280;55930;47.412;8.790;2022-07-17T12:24:50;95322.84;;;29.30;30.72
68889;BME280;55930;47.412;8.790;2022-07-17T12:27:16;95323.19;;;29.51;28.61
68889;BME280;55930;47.412;8.790;2022-07-17T12:29:44;95320.47;;;29.17;29.55
68889;BME280;55930;47.412;8.790;2022-07-17T12:34:38;95321.06;;;29.86;32.49
68889;BME280;55930;47.412;8.790;2022-07-17T12:37:18;95318.44;;;29.52;28.56
68889;BME280;55930;47.412;8.790;2022-07-17T12:39:46;95313.84;;;29.54;29.33
68889;BME280;55930;47.412;8.790;2022-07-17T12:42:12;95319.22;;;29.62;31.52
68889;BME280;55930;47.412;8.790;2022-07-17T12:44:38;95321.16;;;29.96;29.62
68889;BME280;55930;47.412;8.790;2022-07-17T12:47:06;95323.25;;;29.61;32.19
68889;BME280;55930;47.412;8.790;2022-07-17T12:49:34;95313.91;;;30.27;29.28
68889;BME280;55930;47.412;8.790;2022-07-17T12:52:00;95319.44;;;30.37;29.89
68889;BME280;55930;47.412;8.790;2022-07-17T12:54:26;95313.03;;;30.15;29.71
68889;BME280;55930;47.412;8.790;2022-07-17T12:56:51;95313.00;;;29.00;28.77
68889;BME280;55930;47.412;8.790;2022-07-17T12:59:19;95307.09;;;29.82;30.01
68889;BME280;55930;47.412;8.790;2022-07-17T13:01:46;95310.56;;;29.21;28.43
68889;BME280;55930;47.412;8.790;2022-07-17T13:04:12;95310.91;;;29.08;28.91
68889;BME280;55930;47.412;8.790;2022-07-17T13:06:38;95306.41;;;28.86;28.36
68889;BME280;55930;47.412;8.790;2022-07-17T13:09:03;95305.00;;;28.60;30.38
68889;BME280;55930;47.412;8.790;2022-07-17T13:11:29;95305.06;;;29.83;29.95
68889;BME280;55930;47.412;8.790;2022-07-17T13:13:56;95300.34;;;30.20;29.43
68889;BME280;55930;47.412;8.790;2022-07-17T13:16:22;95310.06;;;30.50;28.56
68889;BME280;55930;47.412;8.790;2022-07-17T13:18:50;95305.81;;;30.20;28.33
68889;BME280;55930;47.412;8.790;2022-07-17T13:21:16;95307.28;;;29.40;27.75
68889;BME280;55930;47.412;8.790;2022-07-17T13:23:43;95299.88;;;29.16;28.77
68889;BME280;55930;47.412;8.790;2022-07-17T13:26:09;95303.84;;;29.66;27.30
68889;BME280;55930;47.412;8.790;2022-07-17T13:28:36;95299.03;;;29.57;29.83